createdAt,value
2022-08-02T00:01:25.959Z,79.30
2022-08-02T00:06:28.787Z,80.10
2022-08-02T00:11:32.072Z,80.70
2022-08-02T00:16:38.185Z,81.00
2022-08-02T00:21:42.134Z,81.60
2022-08-02T00:26:45.753Z,82.10
2022-08-02T00:31:48.502Z,82.80
2022-08-02T00:36:51.778Z,83.30
2022-08-02T00:41:54.705Z,84.00
2022-08-02T00:46:57.551Z,84.50
2022-08-02T00:52:01.190Z,84.90
2022-08-02T00:57:05.037Z,85.60
2022-08-02T01:02:09.767Z,86.50
2022-08-02T01:07:14.567Z,87.30
2022-08-02T01:12:17.788Z,87.90
2022-08-02T01:17:50.647Z,88.60
2022-08-02T01:23:18.539Z,89.10
2022-08-02T01:28:50.907Z,89.50
2022-08-02T01:34:19.319Z,90.00
2022-08-02T01:39:31.957Z,90.30
2022-08-02T01:44:40.088Z,90.70
2022-08-02T01:49:48.173Z,91.10
2022-08-02T01:55:07.261Z,91.50
2022-08-02T02:00:14.808Z,91.90
2022-08-02T02:05:23.019Z,92.30
2022-08-02T02:10:30.346Z,92.80
2022-08-02T02:15:35.041Z,93.30
2022-08-02T02:20:38.704Z,93.90
2022-08-02T02:25:46.825Z,94.60
2022-08-02T02:30:55.487Z,95.10
2022-08-02T02:35:59.554Z,95.60
2022-08-02T02:41:06.797Z,95.90
2022-08-02T02:46:11.392Z,96.20
2022-08-02T02:51:15.107Z,96.40
2022-08-02T02:56:18.840Z,96.70
2022-08-02T03:01:55.473Z,97.30
2022-08-02T03:06:52.382Z,97.60
2022-08-02T03:11:57.042Z,97.70
2022-08-02T03:16:59.870Z,97.90
2022-08-02T03:22:02.744Z,98.10
2022-08-02T03:27:05.934Z,98.20
2022-08-02T03:32:09.354Z,98.50
2022-08-02T03:37:12.617Z,98.60
2022-08-02T03:42:16.172Z,98.90
2022-08-02T03:47:19.891Z,99.20
2022-08-02T03:52:25.433Z,99.60
2022-08-02T03:57:28.605Z,99.70
2022-08-02T04:02:31.567Z,99.90
2022-08-02T04:08:02.606Z,99.90
2022-08-02T04:12:58.113Z,99.90
2022-08-02T04:18:04.124Z,99.90
2022-08-02T04:23:14.583Z,99.90
2022-08-02T04:28:19.424Z,99.90
2022-08-02T04:33:32.150Z,99.90
2022-08-02T04:38:35.078Z,99.90
2022-08-02T04:43:37.892Z,99.90
2022-08-02T04:48:40.831Z,99.90
2022-08-02T04:53:43.635Z,99.90
2022-08-02T04:58:46.424Z,99.90
2022-08-02T05:03:49.372Z,99.90
2022-08-02T05:08:52.615Z,99.90
2022-08-02T05:13:58.544Z,99.90
2022-08-02T05:19:03.158Z,99.90
2022-08-02T05:24:07.064Z,99.90
2022-08-02T05:29:09.893Z,99.90
2022-08-02T05:34:13.001Z,99.90
2022-08-02T05:39:18.950Z,99.90
2022-08-02T05:44:22.505Z,99.90
2022-08-02T05:49:25.402Z,98.60
2022-08-02T05:54:51.040Z,96.80
2022-08-02T06:00:10.937Z,95.70
2022-08-02T06:05:21.550Z,94.90
2022-08-02T06:10:26.943Z,94.00
2022-08-02T06:15:30.306Z,93.40
2022-08-02T06:20:38.340Z,93.10
2022-08-02T06:25:47.965Z,92.30
2022-08-02T06:30:54.685Z,91.80
2022-08-02T06:36:22.152Z,91.40
2022-08-02T06:41:27.754Z,90.80
2022-08-02T06:46:57.399Z,89.40
2022-08-02T06:51:53.884Z,87.70
2022-08-02T06:56:56.911Z,86.10
2022-08-02T07:02:00.014Z,83.90
2022-08-02T07:07:02.940Z,81.50
2022-08-02T07:12:06.608Z,80.00
2022-08-02T07:17:09.469Z,78.00
2022-08-02T07:22:13.210Z,76.10
2022-08-02T07:27:16.270Z,75.70
2022-08-02T07:32:23.627Z,75.10
2022-08-02T07:37:52.806Z,74.70
2022-08-02T07:43:02.392Z,72.40
2022-08-02T07:48:08.520Z,71.30
2022-08-02T07:53:11.324Z,71.30
2022-08-02T07:58:14.206Z,70.00
2022-08-02T08:03:16.929Z,68.10
2022-08-02T08:08:19.752Z,68.00
2022-08-02T08:13:22.707Z,66.20
2022-08-02T08:18:25.541Z,66.00
2022-08-02T08:23:28.585Z,65.50
2022-08-02T08:28:31.446Z,63.30
2022-08-02T08:33:34.924Z,62.70
2022-08-02T08:38:37.834Z,61.40
2022-08-02T08:43:40.680Z,61.50
2022-08-02T08:48:50.095Z,61.30
2022-08-02T08:53:57.025Z,60.50
2022-08-02T08:59:00.721Z,59.90
2022-08-02T09:04:03.560Z,59.10
2022-08-02T09:09:06.310Z,58.80
2022-08-02T09:14:09.291Z,58.60
2022-08-02T09:19:26.970Z,57.90
2022-08-02T09:24:40.624Z,57.90
2022-08-02T09:35:12.393Z,57.40
2022-08-02T09:40:15.352Z,56.30
2022-08-02T09:45:18.315Z,56.80
2022-08-02T09:50:21.092Z,55.40
2022-08-02T09:55:26.209Z,55.40
2022-08-02T10:00:50.883Z,54.80
2022-08-02T10:06:03.026Z,54.50
2022-08-02T10:11:06.288Z,54.30
2022-08-02T10:16:10.226Z,54.90
2022-08-02T10:21:29.660Z,53.70
2022-08-02T10:26:33.309Z,53.30
2022-08-02T10:31:55.470Z,53.40
2022-08-02T10:37:03.622Z,53.10
2022-08-02T10:42:06.621Z,52.30
2022-08-02T10:47:17.225Z,52.00
2022-08-02T10:52:31.114Z,52.10
2022-08-02T10:57:35.486Z,50.90
2022-08-02T11:02:42.573Z,51.40
2022-08-02T11:07:50.541Z,51.60
2022-08-02T11:13:17.630Z,51.80
2022-08-02T11:18:22.343Z,51.20
2022-08-02T11:23:45.191Z,52.00
2022-08-02T11:28:51.856Z,52.40
2022-08-02T11:33:54.737Z,52.70
2022-08-02T11:39:15.820Z,52.60
2022-08-02T11:44:20.008Z,52.20
2022-08-02T11:49:26.755Z,52.70
2022-08-02T11:54:35.418Z,51.70
2022-08-02T11:59:39.546Z,52.10
2022-08-02T12:04:42.779Z,52.60
2022-08-02T12:09:46.906Z,51.80
2022-08-02T12:14:49.781Z,50.50
2022-08-02T12:19:52.692Z,50.60
2022-08-02T12:24:58.577Z,49.80
2022-08-02T12:30:09.360Z,49.80
2022-08-02T12:35:25.932Z,49.60
2022-08-02T12:40:33.396Z,50.40
2022-08-02T12:45:56.652Z,51.10
2022-08-02T12:50:59.574Z,49.70
2022-08-02T12:56:03.870Z,50.30
2022-08-02T13:01:06.947Z,50.20
2022-08-02T13:06:40.955Z,50.00
2022-08-02T13:11:32.641Z,49.00
2022-08-02T13:16:35.466Z,49.20
2022-08-02T13:21:41.774Z,47.80
2022-08-02T13:27:04.470Z,46.60
2022-08-02T13:32:11.889Z,46.30
2022-08-02T13:37:15.212Z,46.30
2022-08-02T13:42:18.452Z,45.90
2022-08-02T13:47:26.587Z,45.20
2022-08-02T13:52:39.847Z,45.00
2022-08-02T13:57:42.782Z,44.10
2022-08-02T14:02:56.308Z,44.30
2022-08-02T14:08:01.431Z,44.50
2022-08-02T14:13:04.515Z,44.10
2022-08-02T14:18:07.273Z,43.90
2022-08-02T14:23:10.415Z,44.70
2022-08-02T14:28:13.401Z,43.90
2022-08-02T14:33:16.307Z,44.00
2022-08-02T14:38:20.034Z,43.40
2022-08-02T14:43:41.804Z,43.30
2022-08-02T14:48:44.854Z,43.00
2022-08-02T14:53:49.688Z,42.90
2022-08-02T14:59:06.422Z,43.00
2022-08-02T15:04:09.303Z,42.40
2022-08-02T15:09:13.588Z,42.40
2022-08-02T15:14:25.828Z,42.40
2022-08-02T15:19:56.480Z,42.60
2022-08-02T15:24:54.376Z,43.30
2022-08-02T15:30:00.591Z,42.00
2022-08-02T15:35:04.414Z,41.70
2022-08-02T15:40:08.180Z,41.40
2022-08-02T15:45:14.765Z,41.80
2022-08-02T15:50:19.075Z,41.70
2022-08-02T15:55:22.948Z,41.10
2022-08-02T16:00:25.801Z,41.30
2022-08-02T16:05:28.853Z,41.10
2022-08-02T16:10:31.851Z,40.80
2022-08-02T16:15:34.821Z,41.20
2022-08-02T16:20:37.702Z,41.40
2022-08-02T16:25:42.073Z,41.40
2022-08-02T16:30:59.263Z,41.50
2022-08-02T16:36:07.984Z,41.50
2022-08-02T16:41:10.996Z,41.10
2022-08-02T16:46:15.596Z,41.40
2022-08-02T16:51:19.386Z,41.90
2022-08-02T16:56:22.885Z,42.30
2022-08-02T17:01:27.802Z,42.90
2022-08-02T17:06:51.932Z,43.10
2022-08-02T17:11:55.001Z,43.90
2022-08-02T17:16:57.945Z,44.60
2022-08-02T17:22:00.759Z,45.20
2022-08-02T17:27:04.257Z,45.60
2022-08-02T17:32:10.781Z,46.10
2022-08-02T17:37:14.747Z,46.10
2022-08-02T17:42:20.020Z,46.30
2022-08-02T17:47:30.937Z,46.60
2022-08-02T17:57:59.197Z,47.00
2022-08-02T18:03:05.937Z,47.50
2022-08-02T18:08:09.572Z,47.80
2022-08-02T18:13:12.894Z,48.10
2022-08-02T18:18:19.188Z,48.50
2022-08-02T18:23:32.443Z,48.90
2022-08-02T18:28:40.757Z,49.40
2022-08-02T18:34:00.164Z,49.90
2022-08-02T18:39:07.894Z,50.00
2022-08-02T18:44:15.755Z,50.20
2022-08-02T18:49:19.492Z,50.20
2022-08-02T18:54:26.694Z,50.40
2022-08-02T18:59:36.876Z,50.40
2022-08-02T19:04:43.717Z,50.50
2022-08-02T19:09:49.953Z,50.60
2022-08-02T19:14:52.825Z,50.80
2022-08-02T19:19:56.212Z,51.00
2022-08-02T19:25:00.100Z,51.30
2022-08-02T19:30:08.791Z,51.70
2022-08-02T19:35:19.556Z,51.80
2022-08-02T19:40:33.267Z,52.10
2022-08-02T19:45:50.961Z,52.30
2022-08-02T19:50:59.196Z,52.60
2022-08-02T19:56:04.568Z,52.70
2022-08-02T20:01:09.552Z,53.00
2022-08-02T20:06:29.784Z,53.10
2022-08-02T20:11:35.099Z,53.40
2022-08-02T20:16:38.386Z,53.60
2022-08-02T20:27:08.089Z,54.50
2022-08-02T20:32:11.924Z,55.30
2022-08-02T20:38:01.317Z,55.70
2022-08-02T20:42:38.291Z,56.00
2022-08-02T20:47:42.572Z,56.30
2022-08-02T20:52:49.288Z,56.80
2022-08-02T20:58:00.917Z,57.30
2022-08-02T21:03:05.325Z,57.80
2022-08-02T21:08:13.881Z,58.20
2022-08-02T21:13:22.655Z,58.80
2022-08-02T21:18:34.635Z,60.00
2022-08-02T21:23:44.991Z,60.00
2022-08-02T21:28:52.003Z,60.10
2022-08-02T21:33:59.447Z,60.20
2022-08-02T21:39:09.278Z,60.40
2022-08-02T21:44:12.832Z,60.70
2022-08-02T21:49:16.717Z,61.00
2022-08-02T21:54:21.527Z,61.60
2022-08-02T21:59:26.331Z,62.10
2022-08-02T22:04:30.029Z,62.60
2022-08-02T22:09:43.757Z,62.90
2022-08-02T22:14:53.854Z,63.20
2022-08-02T22:19:57.320Z,63.50
2022-08-02T22:25:00.467Z,63.80
2022-08-02T22:30:07.840Z,64.00
2022-08-02T22:35:13.297Z,64.30
2022-08-02T22:40:16.428Z,64.60
2022-08-02T22:45:20.782Z,64.90
2022-08-02T22:50:23.688Z,65.40
2022-08-02T22:55:32.232Z,65.70
2022-08-02T22:58:49.438Z,46.90
2022-08-02T22:58:55.202Z,54.10
2022-08-02T23:00:35.438Z,66.30
2022-08-02T23:05:39.044Z,67.00
2022-08-02T23:10:42.333Z,67.40
2022-08-02T23:16:04.152Z,68.10
2022-08-02T23:21:07.035Z,68.60
2022-08-02T23:26:09.976Z,69.00
2022-08-02T23:31:51.494Z,69.50
2022-08-02T23:36:55.822Z,70.80
2022-08-02T23:41:58.918Z,70.70
2022-08-02T23:47:01.662Z,71.40
2022-08-02T23:52:04.733Z,71.90
2022-08-02T23:57:20.425Z,72.30
